createdAt,value
2022-10-30T00:01:49.663Z,16.90
2022-10-30T00:07:43.053Z,16.90
2022-10-30T00:13:36.555Z,16.90
2022-10-30T00:19:31.159Z,16.90
2022-10-30T00:25:25.714Z,16.80
2022-10-30T00:31:19.117Z,16.80
2022-10-30T00:37:13.853Z,16.90
2022-10-30T00:43:27.135Z,16.90
2022-10-30T00:49:21.852Z,16.90
2022-10-30T00:55:20.938Z,16.80
2022-10-30T01:01:19.053Z,16.80
2022-10-30T01:07:16.285Z,16.70
2022-10-30T01:13:11.941Z,16.70
2022-10-30T01:19:16.032Z,16.70
2022-10-30T01:25:26.014Z,16.70
2022-10-30T01:31:40.205Z,16.60
2022-10-30T01:37:37.918Z,16.60
2022-10-30T01:43:32.178Z,16.60
2022-10-30T01:49:48.647Z,16.60
2022-10-30T01:55:48.301Z,16.60
2022-10-30T02:01:41.920Z,16.50
2022-10-30T02:07:37.719Z,16.50
2022-10-30T02:13:34.095Z,16.50
2022-10-30T02:19:27.573Z,16.50
2022-10-30T02:25:22.423Z,16.50
2022-10-30T02:31:15.680Z,16.50
2022-10-30T02:37:09.410Z,16.40
2022-10-30T02:43:05.222Z,16.50
2022-10-30T02:48:58.738Z,16.40
2022-10-30T02:54:53.803Z,16.40
2022-10-30T03:00:48.472Z,16.40
2022-10-30T03:06:42.277Z,16.30
2022-10-30T03:12:35.619Z,16.30
2022-10-30T03:18:30.352Z,16.30
2022-10-30T03:24:23.604Z,16.30
2022-10-30T03:30:16.983Z,16.30
2022-10-30T03:36:13.206Z,16.20
2022-10-30T03:42:06.781Z,16.20
2022-10-30T03:48:00.708Z,16.10
2022-10-30T03:53:55.653Z,16.10
2022-10-30T03:59:48.961Z,16.00
2022-10-30T04:06:05.809Z,16.00
2022-10-30T04:12:01.083Z,16.10
2022-10-30T04:17:54.456Z,16.00
2022-10-30T04:23:47.825Z,15.90
2022-10-30T04:29:43.449Z,16.00
2022-10-30T04:35:38.677Z,16.00
2022-10-30T04:41:37.172Z,15.90
2022-10-30T04:47:40.060Z,15.90
2022-10-30T04:53:33.646Z,15.80
2022-10-30T04:59:32.250Z,15.90
2022-10-30T05:05:28.591Z,15.90
2022-10-30T05:11:22.416Z,15.90
2022-10-30T05:17:15.269Z,15.90
2022-10-30T05:23:10.845Z,15.80
2022-10-30T05:29:04.262Z,15.70
2022-10-30T05:34:57.668Z,15.70
2022-10-30T05:40:52.692Z,15.70
2022-10-30T05:46:47.548Z,15.70
2022-10-30T05:53:07.333Z,15.70
2022-10-30T05:59:02.145Z,15.70
2022-10-30T06:04:55.695Z,15.70
2022-10-30T06:10:49.413Z,15.70
2022-10-30T06:16:48.996Z,15.60
2022-10-30T06:22:56.049Z,15.60
2022-10-30T06:28:52.742Z,15.50
2022-10-30T06:34:47.101Z,15.50
2022-10-30T06:40:42.405Z,15.50
2022-10-30T06:46:54.171Z,15.50
2022-10-30T06:52:49.736Z,15.50
2022-10-30T06:58:43.782Z,15.50
2022-10-30T07:04:46.826Z,15.50
2022-10-30T07:10:41.648Z,15.50
2022-10-30T07:16:59.136Z,15.40
2022-10-30T07:22:53.739Z,15.40
2022-10-30T07:28:48.262Z,15.00
2022-10-30T07:34:51.100Z,15.00
2022-10-30T07:40:59.703Z,15.00
2022-10-30T07:47:26.554Z,14.90
2022-10-30T07:53:33.063Z,15.40
2022-10-30T07:59:27.114Z,15.50
2022-10-30T08:05:47.379Z,15.80
2022-10-30T08:11:52.335Z,15.80
2022-10-30T08:17:50.157Z,15.80
2022-10-30T08:24:03.457Z,15.90
2022-10-30T08:29:59.450Z,16.00
2022-10-30T08:35:54.673Z,15.90
2022-10-30T08:41:51.300Z,15.90
2022-10-30T08:47:46.298Z,16.10
2022-10-30T08:53:40.276Z,16.30
2022-10-30T08:59:39.465Z,16.30
2022-10-30T09:05:34.623Z,16.30
2022-10-30T09:11:50.489Z,16.40
2022-10-30T09:17:45.264Z,16.50
2022-10-30T09:23:38.899Z,16.60
2022-10-30T09:29:57.762Z,16.70
2022-10-30T09:35:59.277Z,16.80
2022-10-30T09:42:20.501Z,16.90
2022-10-30T09:48:57.675Z,17.20
2022-10-30T09:55:03.411Z,17.40
2022-10-30T10:01:13.127Z,17.70
2022-10-30T10:07:21.165Z,18.00
2022-10-30T10:13:34.176Z,18.30
2022-10-30T10:19:33.646Z,18.60
2022-10-30T10:25:27.680Z,18.90
2022-10-30T10:31:37.637Z,19.20
2022-10-30T10:37:40.071Z,19.50
2022-10-30T10:43:45.264Z,19.80
2022-10-30T10:49:51.741Z,20.10
2022-10-30T10:55:49.901Z,20.40
2022-10-30T11:01:49.544Z,20.80
2022-10-30T11:07:48.709Z,20.90
2022-10-30T11:13:44.706Z,21.50
2022-10-30T11:19:38.175Z,21.60
2022-10-30T11:25:37.696Z,21.70
2022-10-30T11:31:35.640Z,21.70
2022-10-30T11:37:33.394Z,21.90
2022-10-30T11:43:30.894Z,22.20
2022-10-30T11:49:33.061Z,22.20
2022-10-30T11:55:30.883Z,22.10
2022-10-30T12:01:27.155Z,22.20
2022-10-30T12:07:26.375Z,22.80
2022-10-30T12:13:22.486Z,22.60
2022-10-30T12:19:18.458Z,23.00
2022-10-30T12:25:32.263Z,23.00
2022-10-30T12:31:32.986Z,23.10
2022-10-30T12:37:30.679Z,23.40
2022-10-30T12:43:27.727Z,23.40
2022-10-30T12:49:28.777Z,23.30
2022-10-30T12:55:28.013Z,23.30
2022-10-30T13:01:28.066Z,23.40
2022-10-30T13:07:27.312Z,23.40
2022-10-30T13:13:26.376Z,23.30
2022-10-30T13:19:19.649Z,23.30
2022-10-30T13:25:20.564Z,23.50
2022-10-30T13:31:23.694Z,23.50
2022-10-30T13:37:23.334Z,23.50
2022-10-30T13:43:26.390Z,23.50
2022-10-30T13:49:41.104Z,23.50
2022-10-30T13:55:36.434Z,23.20
2022-10-30T14:01:36.833Z,23.20
2022-10-30T14:07:39.309Z,23.10
2022-10-30T14:13:49.215Z,23.00
2022-10-30T14:20:28.762Z,22.90
2022-10-30T14:26:27.736Z,22.90
2022-10-30T14:32:38.210Z,22.80
2022-10-30T14:38:36.459Z,22.70
2022-10-30T14:45:09.706Z,22.50
2022-10-30T14:51:13.121Z,22.40
2022-10-30T14:57:22.080Z,22.30
2022-10-30T15:03:31.201Z,22.20
2022-10-30T15:09:40.796Z,22.00
2022-10-30T15:15:34.600Z,21.80
2022-10-30T15:21:31.515Z,21.60
2022-10-30T15:27:27.056Z,21.40
2022-10-30T15:33:23.596Z,21.30
2022-10-30T15:39:20.153Z,21.10
2022-10-30T15:45:19.219Z,20.90
2022-10-30T15:51:17.427Z,20.80
2022-10-30T15:57:49.334Z,20.80
2022-10-30T16:03:32.043Z,20.60
2022-10-30T16:09:26.773Z,20.50
2022-10-30T16:15:28.476Z,20.30
2022-10-30T16:21:24.989Z,20.30
2022-10-30T16:27:21.437Z,20.20
2022-10-30T16:33:17.093Z,20.10
2022-10-30T16:39:15.337Z,20.00
2022-10-30T16:45:56.490Z,19.90
2022-10-30T16:51:57.216Z,19.80
2022-10-30T16:57:56.261Z,19.70
2022-10-30T17:03:50.936Z,19.70
2022-10-30T17:09:47.210Z,19.60
2022-10-30T17:15:42.385Z,19.60
2022-10-30T17:21:40.992Z,19.50
2022-10-30T17:27:46.782Z,19.50
2022-10-30T17:33:40.777Z,19.40
2022-10-30T17:39:34.038Z,19.40
2022-10-30T17:45:28.867Z,19.30
2022-10-30T17:51:21.730Z,19.30
2022-10-30T17:57:17.544Z,19.20
2022-10-30T18:03:12.168Z,19.20
2022-10-30T18:09:05.458Z,19.10
2022-10-30T18:14:58.590Z,19.10
2022-10-30T18:20:52.894Z,19.00
2022-10-30T18:26:46.625Z,19.00
2022-10-30T18:32:39.903Z,18.90
2022-10-30T18:38:34.501Z,18.90
2022-10-30T18:44:27.703Z,18.80
2022-10-30T18:50:23.208Z,18.80
2022-10-30T18:56:17.533Z,18.80
2022-10-30T19:02:20.506Z,18.70
2022-10-30T19:08:13.827Z,18.70
2022-10-30T19:14:13.187Z,18.70
2022-10-30T19:20:07.288Z,18.60
2022-10-30T19:26:00.679Z,18.60
2022-10-30T19:31:55.336Z,18.50
2022-10-30T19:37:48.662Z,18.50
2022-10-30T19:43:41.525Z,18.50
2022-10-30T19:49:36.255Z,18.40
2022-10-30T19:55:31.581Z,18.40
2022-10-30T20:01:24.909Z,18.30
2022-10-30T20:07:19.357Z,18.30
2022-10-30T20:13:13.052Z,18.30
2022-10-30T20:19:27.172Z,18.20
2022-10-30T20:25:22.758Z,18.20
2022-10-30T20:31:15.957Z,18.10
2022-10-30T20:37:10.767Z,18.10
2022-10-30T20:43:05.328Z,18.00
2022-10-30T20:49:01.286Z,18.00
2022-10-30T20:55:00.955Z,18.00
2022-10-30T21:00:58.529Z,17.90
2022-10-30T21:06:51.877Z,17.90
2022-10-30T21:12:45.173Z,17.80
2022-10-30T21:18:39.796Z,17.80
2022-10-30T21:24:33.079Z,17.80
2022-10-30T21:30:26.284Z,17.70
2022-10-30T21:36:21.205Z,17.60
2022-10-30T21:42:14.097Z,17.60
2022-10-30T21:48:07.532Z,17.60
2022-10-30T21:54:01.679Z,17.60
2022-10-30T21:59:54.948Z,17.40
2022-10-30T22:05:48.161Z,17.50
2022-10-30T22:11:42.743Z,17.40
2022-10-30T22:17:36.013Z,17.40
2022-10-30T22:23:29.444Z,17.40
2022-10-30T22:29:24.003Z,17.30
2022-10-30T22:35:17.234Z,17.30
2022-10-30T22:41:12.246Z,17.20
2022-10-30T22:47:06.876Z,17.20
2022-10-30T22:53:00.340Z,17.20
2022-10-30T22:58:54.512Z,17.10
2022-10-30T23:04:49.106Z,17.10
2022-10-30T23:10:42.325Z,17.00
2022-10-30T23:16:35.555Z,17.00
2022-10-30T23:22:30.885Z,17.00
2022-10-30T23:28:23.731Z,17.00
2022-10-30T23:34:18.242Z,16.90
2022-10-30T23:40:13.596Z,16.90
2022-10-30T23:46:07.289Z,16.90
2022-10-30T23:52:00.549Z,16.80
2022-10-30T23:57:55.178Z,16.80
